sensor_id;sensor_type;location;lat;lon;timestamp;temperature;humidity
21189;DHT22;39071;52.420;20.896;2022-07-06T00:02:14;17.70;99.90
21189;DHT22;39071;52.420;20.896;2022-07-06T00:04:40;17.80;99.90
21189;DHT22;39071;52.420;20.896;2022-07-06T00:07:06;17.80;99.90
21189;DHT22;39071;52.420;20.896;2022-07-06T00:09:32;17.80;99.90
21189;DHT22;39071;52.420;20.896;2022-07-06T00:11:58;17.90;99.90
21189;DHT22;39071;52.420;20.896;2022-07-06T00:14:24;17.90;99.90
21189;DHT22;39071;52.420;20.896;2022-07-06T00:16:49;17.90;99.90
21189;DHT22;39071;52.420;20.896;2022-07-06T00:19:15;17.90;99.90
21189;DHT22;39071;52.420;20.896;2022-07-06T00:21:41;17.90;86.40
21189;DHT22;39071;52.420;20.896;2022-07-06T00:24:06;17.90;76.30
21189;DHT22;39071;52.420;20.896;2022-07-06T00:26:32;17.90;99.90
21189;DHT22;39071;52.420;20.896;2022-07-06T00:28:58;17.90;99.90
21189;DHT22;39071;52.420;20.896;2022-07-06T00:31:23;17.90;96.40
21189;DHT22;39071;52.420;20.896;2022-07-06T00:33:49;17.90;69.50
21189;DHT22;39071;52.420;20.896;2022-07-06T00:36:15;17.90;72.30
21189;DHT22;39071;52.420;20.896;2022-07-06T00:38:41;17.90;99.90
21189;DHT22;39071;52.420;20.896;2022-07-06T00:41:06;17.90;99.90
21189;DHT22;39071;52.420;20.896;2022-07-06T00:43:48;18.00;99.90
21189;DHT22;39071;52.420;20.896;2022-07-06T00:46:14;18.00;99.90
21189;DHT22;39071;52.420;20.896;2022-07-06T00:48:40;18.00;96.80
21189;DHT22;39071;52.420;20.896;2022-07-06T00:51:06;18.00;10.10
21189;DHT22;39071;52.420;20.896;2022-07-06T00:53:31;18.00;1.00
21189;DHT22;39071;52.420;20.896;2022-07-06T00:55:57;18.00;1.00
21189;DHT22;39071;52.420;20.896;2022-07-06T00:58:23;17.90;1.00
21189;DHT22;39071;52.420;20.896;2022-07-06T01:00:50;17.80;1.00
21189;DHT22;39071;52.420;20.896;2022-07-06T01:03:15;17.70;1.00
21189;DHT22;39071;52.420;20.896;2022-07-06T01:05:41;17.70;4.90
21189;DHT22;39071;52.420;20.896;2022-07-06T01:08:07;17.70;98.50
21189;DHT22;39071;52.420;20.896;2022-07-06T01:10:33;17.70;99.90
21189;DHT22;39071;52.420;20.896;2022-07-06T01:12:58;17.60;99.90
21189;DHT22;39071;52.420;20.896;2022-07-06T01:15:25;17.60;99.90
21189;DHT22;39071;52.420;20.896;2022-07-06T01:17:51;17.70;99.90
21189;DHT22;39071;52.420;20.896;2022-07-06T01:20:21;17.60;99.90
21189;DHT22;39071;52.420;20.896;2022-07-06T01:22:48;17.70;99.90
21189;DHT22;39071;52.420;20.896;2022-07-06T01:25:14;17.70;99.90
21189;DHT22;39071;52.420;20.896;2022-07-06T01:27:41;17.70;99.90
21189;DHT22;39071;52.420;20.896;2022-07-06T01:30:18;17.70;99.90
21189;DHT22;39071;52.420;20.896;2022-07-06T01:32:44;17.70;99.90
21189;DHT22;39071;52.420;20.896;2022-07-06T01:35:15;17.70;99.90
21189;DHT22;39071;52.420;20.896;2022-07-06T01:37:41;17.70;99.90
21189;DHT22;39071;52.420;20.896;2022-07-06T01:40:09;17.60;99.90
21189;DHT22;39071;52.420;20.896;2022-07-06T01:42:35;17.50;99.90
21189;DHT22;39071;52.420;20.896;2022-07-06T01:45:03;17.50;99.90
21189;DHT22;39071;52.420;20.896;2022-07-06T01:47:29;17.50;99.90
21189;DHT22;39071;52.420;20.896;2022-07-06T01:49:58;17.40;99.90
21189;DHT22;39071;52.420;20.896;2022-07-06T01:52:23;17.40;99.90
21189;DHT22;39071;52.420;20.896;2022-07-06T01:54:49;17.40;99.90
21189;DHT22;39071;52.420;20.896;2022-07-06T01:57:15;17.40;99.90
21189;DHT22;39071;52.420;20.896;2022-07-06T01:59:40;17.30;99.90
21189;DHT22;39071;52.420;20.896;2022-07-06T02:02:06;17.30;99.90
21189;DHT22;39071;52.420;20.896;2022-07-06T02:04:32;17.30;99.90
21189;DHT22;39071;52.420;20.896;2022-07-06T02:06:57;17.40;99.90
21189;DHT22;39071;52.420;20.896;2022-07-06T02:09:23;17.40;99.90
21189;DHT22;39071;52.420;20.896;2022-07-06T02:11:49;17.50;99.90
21189;DHT22;39071;52.420;20.896;2022-07-06T02:14:14;17.50;99.90
21189;DHT22;39071;52.420;20.896;2022-07-06T02:16:40;17.50;99.90
21189;DHT22;39071;52.420;20.896;2022-07-06T02:19:05;17.50;99.90
21189;DHT22;39071;52.420;20.896;2022-07-06T02:21:31;17.60;99.90
21189;DHT22;39071;52.420;20.896;2022-07-06T02:23:57;17.50;99.90
21189;DHT22;39071;52.420;20.896;2022-07-06T02:26:22;17.50;99.90
21189;DHT22;39071;52.420;20.896;2022-07-06T02:28:48;17.50;99.90
21189;DHT22;39071;52.420;20.896;2022-07-06T02:31:14;17.50;99.90
21189;DHT22;39071;52.420;20.896;2022-07-06T02:33:40;17.50;99.90
21189;DHT22;39071;52.420;20.896;2022-07-06T02:36:06;17.60;99.90
21189;DHT22;39071;52.420;20.896;2022-07-06T02:38:32;17.50;99.90
21189;DHT22;39071;52.420;20.896;2022-07-06T02:40:58;17.50;99.90
21189;DHT22;39071;52.420;20.896;2022-07-06T02:43:24;17.40;99.90
21189;DHT22;39071;52.420;20.896;2022-07-06T02:45:49;17.50;99.90
21189;DHT22;39071;52.420;20.896;2022-07-06T02:48:24;17.50;99.90
21189;DHT22;39071;52.420;20.896;2022-07-06T02:50:49;17.50;99.90
21189;DHT22;39071;52.420;20.896;2022-07-06T02:53:17;17.50;99.90
21189;DHT22;39071;52.420;20.896;2022-07-06T02:55:42;17.50;99.90
21189;DHT22;39071;52.420;20.896;2022-07-06T02:58:08;17.50;99.90
21189;DHT22;39071;52.420;20.896;2022-07-06T03:00:33;17.50;99.90
21189;DHT22;39071;52.420;20.896;2022-07-06T03:02:59;17.40;99.90
21189;DHT22;39071;52.420;20.896;2022-07-06T03:05:25;17.30;99.90
21189;DHT22;39071;52.420;20.896;2022-07-06T03:07:50;17.30;99.90
21189;DHT22;39071;52.420;20.896;2022-07-06T03:10:16;17.30;99.90
21189;DHT22;39071;52.420;20.896;2022-07-06T03:12:41;17.30;99.90
21189;DHT22;39071;52.420;20.896;2022-07-06T03:15:08;17.20;99.90
21189;DHT22;39071;52.420;20.896;2022-07-06T03:17:35;17.20;99.90
21189;DHT22;39071;52.420;20.896;2022-07-06T03:20:01;17.20;99.90
21189;DHT22;39071;52.420;20.896;2022-07-06T03:22:26;17.20;99.90
21189;DHT22;39071;52.420;20.896;2022-07-06T03:24:52;17.30;99.90
21189;DHT22;39071;52.420;20.896;2022-07-06T03:27:17;17.30;99.90
21189;DHT22;39071;52.420;20.896;2022-07-06T03:29:43;17.30;99.90
21189;DHT22;39071;52.420;20.896;2022-07-06T03:32:09;17.30;99.90
21189;DHT22;39071;52.420;20.896;2022-07-06T03:34:34;17.40;99.90
21189;DHT22;39071;52.420;20.896;2022-07-06T03:37:00;17.40;99.90
21189;DHT22;39071;52.420;20.896;2022-07-06T03:39:25;17.40;99.90
21189;DHT22;39071;52.420;20.896;2022-07-06T03:41:51;17.40;99.90
21189;DHT22;39071;52.420;20.896;2022-07-06T03:44:17;17.40;99.90
21189;DHT22;39071;52.420;20.896;2022-07-06T03:46:42;17.40;99.90
21189;DHT22;39071;52.420;20.896;2022-07-06T03:49:08;17.40;99.90
21189;DHT22;39071;52.420;20.896;2022-07-06T03:51:34;17.40;99.90
21189;DHT22;39071;52.420;20.896;2022-07-06T03:53:59;17.40;99.90
21189;DHT22;39071;52.420;20.896;2022-07-06T03:56:25;17.40;99.90
21189;DHT22;39071;52.420;20.896;2022-07-06T03:58:54;17.50;99.90
21189;DHT22;39071;52.420;20.896;2022-07-06T04:01:20;17.50;99.90
21189;DHT22;39071;52.420;20.896;2022-07-06T04:03:46;17.50;99.90
21189;DHT22;39071;52.420;20.896;2022-07-06T04:06:11;17.60;99.90
21189;DHT22;39071;52.420;20.896;2022-07-06T04:08:37;17.60;99.90
21189;DHT22;39071;52.420;20.896;2022-07-06T04:11:03;17.60;99.90
21189;DHT22;39071;52.420;20.896;2022-07-06T04:13:29;17.50;99.90
21189;DHT22;39071;52.420;20.896;2022-07-06T04:15:54;17.50;99.90
21189;DHT22;39071;52.420;20.896;2022-07-06T04:18:20;17.50;99.90
21189;DHT22;39071;52.420;20.896;2022-07-06T04:20:46;17.50;99.90
21189;DHT22;39071;52.420;20.896;2022-07-06T04:23:11;17.50;99.90
21189;DHT22;39071;52.420;20.896;2022-07-06T04:25:37;17.40;99.90
21189;DHT22;39071;52.420;20.896;2022-07-06T04:28:03;17.40;99.90
21189;DHT22;39071;52.420;20.896;2022-07-06T04:30:29;17.40;99.90
21189;DHT22;39071;52.420;20.896;2022-07-06T04:32:55;17.40;99.90
21189;DHT22;39071;52.420;20.896;2022-07-06T04:35:23;17.40;99.90
21189;DHT22;39071;52.420;20.896;2022-07-06T04:37:49;17.40;99.90
21189;DHT22;39071;52.420;20.896;2022-07-06T04:40:15;17.40;99.90
21189;DHT22;39071;52.420;20.896;2022-07-06T04:42:41;17.40;99.90
21189;DHT22;39071;52.420;20.896;2022-07-06T04:45:07;17.40;99.90
21189;DHT22;39071;52.420;20.896;2022-07-06T04:47:32;17.40;99.90
21189;DHT22;39071;52.420;20.896;2022-07-06T04:49:58;17.50;99.90
21189;DHT22;39071;52.420;20.896;2022-07-06T04:52:24;17.50;92.80
21189;DHT22;39071;52.420;20.896;2022-07-06T04:54:49;17.50;29.60
21189;DHT22;39071;52.420;20.896;2022-07-06T04:57:15;17.40;1.00
21189;DHT22;39071;52.420;20.896;2022-07-06T04:59:41;17.40;1.00
21189;DHT22;39071;52.420;20.896;2022-07-06T05:02:07;17.50;50.30
21189;DHT22;39071;52.420;20.896;2022-07-06T05:04:32;17.50;99.80
21189;DHT22;39071;52.420;20.896;2022-07-06T05:06:58;17.60;99.90
21189;DHT22;39071;52.420;20.896;2022-07-06T05:09:24;17.60;99.90
21189;DHT22;39071;52.420;20.896;2022-07-06T05:11:50;17.70;65.50
21189;DHT22;39071;52.420;20.896;2022-07-06T05:14:16;17.70;1.00
21189;DHT22;39071;52.420;20.896;2022-07-06T05:16:42;17.70;1.00
21189;DHT22;39071;52.420;20.896;2022-07-06T05:19:08;17.70;1.00
21189;DHT22;39071;52.420;20.896;2022-07-06T05:21:33;17.70;1.00
21189;DHT22;39071;52.420;20.896;2022-07-06T05:23:59;17.60;1.00
21189;DHT22;39071;52.420;20.896;2022-07-06T05:26:25;17.60;1.00
21189;DHT22;39071;52.420;20.896;2022-07-06T05:28:50;17.60;1.00
21189;DHT22;39071;52.420;20.896;2022-07-06T05:31:16;17.70;1.00
21189;DHT22;39071;52.420;20.896;2022-07-06T05:33:42;17.80;1.00
21189;DHT22;39071;52.420;20.896;2022-07-06T05:36:07;17.90;1.00
21189;DHT22;39071;52.420;20.896;2022-07-06T05:38:33;18.00;1.00
21189;DHT22;39071;52.420;20.896;2022-07-06T05:40:59;18.10;1.00
21189;DHT22;39071;52.420;20.896;2022-07-06T05:43:25;19.00;1.00
21189;DHT22;39071;52.420;20.896;2022-07-06T05:45:50;20.30;60.70
21189;DHT22;39071;52.420;20.896;2022-07-06T05:48:16;21.00;1.00
21189;DHT22;39071;52.420;20.896;2022-07-06T05:51:00;20.90;1.00
21189;DHT22;39071;52.420;20.896;2022-07-06T05:53:26;20.90;1.00
21189;DHT22;39071;52.420;20.896;2022-07-06T05:55:52;20.60;1.00
21189;DHT22;39071;52.420;20.896;2022-07-06T05:58:18;20.70;1.00
21189;DHT22;39071;52.420;20.896;2022-07-06T06:00:44;21.40;1.00
21189;DHT22;39071;52.420;20.896;2022-07-06T06:03:10;22.60;99.90
21189;DHT22;39071;52.420;20.896;2022-07-06T06:05:35;22.70;1.00
21189;DHT22;39071;52.420;20.896;2022-07-06T06:08:01;22.60;1.00
21189;DHT22;39071;52.420;20.896;2022-07-06T06:10:27;23.10;1.00
21189;DHT22;39071;52.420;20.896;2022-07-06T06:12:53;23.80;1.00
21189;DHT22;39071;52.420;20.896;2022-07-06T06:15:18;24.20;1.00
21189;DHT22;39071;52.420;20.896;2022-07-06T06:17:45;24.30;1.00
21189;DHT22;39071;52.420;20.896;2022-07-06T06:20:13;24.40;99.90
21189;DHT22;39071;52.420;20.896;2022-07-06T06:22:50;24.50;1.00
21189;DHT22;39071;52.420;20.896;2022-07-06T06:25:18;24.80;1.00
21189;DHT22;39071;52.420;20.896;2022-07-06T06:27:44;25.20;99.90
21189;DHT22;39071;52.420;20.896;2022-07-06T06:30:10;24.50;1.00
21189;DHT22;39071;52.420;20.896;2022-07-06T06:32:37;25.40;1.00
21189;DHT22;39071;52.420;20.896;2022-07-06T06:35:03;25.60;99.90
21189;DHT22;39071;52.420;20.896;2022-07-06T06:37:29;26.00;99.90
21189;DHT22;39071;52.420;20.896;2022-07-06T06:39:54;26.00;99.90
21189;DHT22;39071;52.420;20.896;2022-07-06T06:42:20;26.30;99.90
21189;DHT22;39071;52.420;20.896;2022-07-06T06:44:46;26.70;99.90
21189;DHT22;39071;52.420;20.896;2022-07-06T06:47:11;26.80;99.90
21189;DHT22;39071;52.420;20.896;2022-07-06T06:49:37;26.50;99.90
21189;DHT22;39071;52.420;20.896;2022-07-06T06:52:03;26.20;99.90
21189;DHT22;39071;52.420;20.896;2022-07-06T06:54:29;26.10;99.90
21189;DHT22;39071;52.420;20.896;2022-07-06T06:56:54;25.90;99.90
21189;DHT22;39071;52.420;20.896;2022-07-06T06:59:20;25.30;99.90
21189;DHT22;39071;52.420;20.896;2022-07-06T07:01:45;27.10;99.90
21189;DHT22;39071;52.420;20.896;2022-07-06T07:04:11;27.90;99.90
21189;DHT22;39071;52.420;20.896;2022-07-06T07:06:37;28.00;99.90
21189;DHT22;39071;52.420;20.896;2022-07-06T07:09:03;27.20;95.70
21189;DHT22;39071;52.420;20.896;2022-07-06T07:11:29;26.30;99.90
21189;DHT22;39071;52.420;20.896;2022-07-06T07:13:55;25.50;99.90
21189;DHT22;39071;52.420;20.896;2022-07-06T07:16:21;25.40;99.90
21189;DHT22;39071;52.420;20.896;2022-07-06T07:18:46;25.80;99.90
21189;DHT22;39071;52.420;20.896;2022-07-06T07:21:12;25.70;97.40
21189;DHT22;39071;52.420;20.896;2022-07-06T07:23:37;25.20;92.80
21189;DHT22;39071;52.420;20.896;2022-07-06T07:26:03;25.00;94.00
21189;DHT22;39071;52.420;20.896;2022-07-06T07:28:29;26.10;84.20
21189;DHT22;39071;52.420;20.896;2022-07-06T07:30:54;26.70;83.60
21189;DHT22;39071;52.420;20.896;2022-07-06T07:33:20;26.90;90.10
21189;DHT22;39071;52.420;20.896;2022-07-06T07:35:46;27.40;57.60
21189;DHT22;39071;52.420;20.896;2022-07-06T07:38:11;27.60;43.50
21189;DHT22;39071;52.420;20.896;2022-07-06T07:40:37;28.10;44.70
21189;DHT22;39071;52.420;20.896;2022-07-06T07:43:02;28.40;31.50
21189;DHT22;39071;52.420;20.896;2022-07-06T07:45:28;29.70;11.70
21189;DHT22;39071;52.420;20.896;2022-07-06T07:47:54;29.80;1.00
21189;DHT22;39071;52.420;20.896;2022-07-06T07:50:20;29.70;1.00
21189;DHT22;39071;52.420;20.896;2022-07-06T07:52:46;29.30;1.00
21189;DHT22;39071;52.420;20.896;2022-07-06T07:55:12;29.00;1.00
21189;DHT22;39071;52.420;20.896;2022-07-06T07:57:37;28.00;1.00
21189;DHT22;39071;52.420;20.896;2022-07-06T08:00:04;28.00;1.00
21189;DHT22;39071;52.420;20.896;2022-07-06T08:02:30;27.40;1.00
21189;DHT22;39071;52.420;20.896;2022-07-06T08:04:56;27.10;1.00
21189;DHT22;39071;52.420;20.896;2022-07-06T08:07:21;26.70;1.00
21189;DHT22;39071;52.420;20.896;2022-07-06T08:09:47;26.90;1.00
21189;DHT22;39071;52.420;20.896;2022-07-06T08:12:13;28.40;1.00
21189;DHT22;39071;52.420;20.896;2022-07-06T08:14:38;28.40;1.00
21189;DHT22;39071;52.420;20.896;2022-07-06T08:17:04;28.70;1.00
21189;DHT22;39071;52.420;20.896;2022-07-06T08:19:30;29.20;1.00
21189;DHT22;39071;52.420;20.896;2022-07-06T08:21:57;29.90;1.00
21189;DHT22;39071;52.420;20.896;2022-07-06T08:24:22;29.20;1.00
21189;DHT22;39071;52.420;20.896;2022-07-06T08:26:48;29.70;1.00
21189;DHT22;39071;52.420;20.896;2022-07-06T08:29:14;29.10;1.00
21189;DHT22;39071;52.420;20.896;2022-07-06T08:31:39;29.30;1.00
21189;DHT22;39071;52.420;20.896;2022-07-06T08:34:05;29.70;1.00
21189;DHT22;39071;52.420;20.896;2022-07-06T08:36:31;29.40;1.00
21189;DHT22;39071;52.420;20.896;2022-07-06T08:38:57;29.70;1.00
21189;DHT22;39071;52.420;20.896;2022-07-06T08:41:25;29.10;1.00
21189;DHT22;39071;52.420;20.896;2022-07-06T08:43:51;28.10;1.00
21189;DHT22;39071;52.420;20.896;2022-07-06T08:46:18;28.60;1.00
21189;DHT22;39071;52.420;20.896;2022-07-06T08:48:45;29.10;1.00
21189;DHT22;39071;52.420;20.896;2022-07-06T08:51:13;29.10;1.00
21189;DHT22;39071;52.420;20.896;2022-07-06T08:53:43;29.60;1.00
21189;DHT22;39071;52.420;20.896;2022-07-06T08:56:10;29.90;1.00
21189;DHT22;39071;52.420;20.896;2022-07-06T08:58:36;29.30;1.00
21189;DHT22;39071;52.420;20.896;2022-07-06T09:01:02;29.40;1.00
21189;DHT22;39071;52.420;20.896;2022-07-06T09:03:28;28.80;1.00
21189;DHT22;39071;52.420;20.896;2022-07-06T09:05:59;28.10;1.00
21189;DHT22;39071;52.420;20.896;2022-07-06T09:08:27;27.50;1.00
21189;DHT22;39071;52.420;20.896;2022-07-06T09:10:55;27.60;1.00
21189;DHT22;39071;52.420;20.896;2022-07-06T09:13:20;27.50;1.00
21189;DHT22;39071;52.420;20.896;2022-07-06T09:15:46;27.70;1.00
21189;DHT22;39071;52.420;20.896;2022-07-06T09:18:11;27.90;1.00
21189;DHT22;39071;52.420;20.896;2022-07-06T09:20:37;27.90;1.00
21189;DHT22;39071;52.420;20.896;2022-07-06T09:23:06;27.20;1.00
21189;DHT22;39071;52.420;20.896;2022-07-06T09:25:32;26.90;1.00
21189;DHT22;39071;52.420;20.896;2022-07-06T09:27:59;26.60;1.00
21189;DHT22;39071;52.420;20.896;2022-07-06T09:30:26;26.20;1.00
21189;DHT22;39071;52.420;20.896;2022-07-06T09:32:55;26.60;1.00
21189;DHT22;39071;52.420;20.896;2022-07-06T09:37:48;25.60;1.00
21189;DHT22;39071;52.420;20.896;2022-07-06T09:40:24;25.60;1.00
21189;DHT22;39071;52.420;20.896;2022-07-06T09:42:50;25.60;1.00
21189;DHT22;39071;52.420;20.896;2022-07-06T09:45:20;25.70;1.00
21189;DHT22;39071;52.420;20.896;2022-07-06T09:47:49;25.90;1.00
21189;DHT22;39071;52.420;20.896;2022-07-06T09:50:16;26.20;1.00
21189;DHT22;39071;52.420;20.896;2022-07-06T09:52:53;26.30;1.00
21189;DHT22;39071;52.420;20.896;2022-07-06T09:55:22;26.10;1.00
21189;DHT22;39071;52.420;20.896;2022-07-06T09:57:52;25.90;1.00
21189;DHT22;39071;52.420;20.896;2022-07-06T10:00:19;26.20;1.00
21189;DHT22;39071;52.420;20.896;2022-07-06T10:02:46;26.90;1.00
21189;DHT22;39071;52.420;20.896;2022-07-06T10:05:14;27.20;1.00
21189;DHT22;39071;52.420;20.896;2022-07-06T10:07:41;27.60;1.00
21189;DHT22;39071;52.420;20.896;2022-07-06T10:10:08;27.70;1.00
21189;DHT22;39071;52.420;20.896;2022-07-06T10:12:34;27.80;1.00
21189;DHT22;39071;52.420;20.896;2022-07-06T10:15:00;28.10;1.00
21189;DHT22;39071;52.420;20.896;2022-07-06T10:17:26;28.30;1.00
21189;DHT22;39071;52.420;20.896;2022-07-06T10:19:52;27.60;1.00
21189;DHT22;39071;52.420;20.896;2022-07-06T10:22:19;26.80;1.00
21189;DHT22;39071;52.420;20.896;2022-07-06T10:24:46;26.30;1.00
21189;DHT22;39071;52.420;20.896;2022-07-06T10:27:14;25.90;1.00
21189;DHT22;39071;52.420;20.896;2022-07-06T10:29:40;26.00;1.00
21189;DHT22;39071;52.420;20.896;2022-07-06T10:32:07;25.80;1.00
21189;DHT22;39071;52.420;20.896;2022-07-06T10:34:34;25.90;1.00
21189;DHT22;39071;52.420;20.896;2022-07-06T10:37:02;25.90;1.00
21189;DHT22;39071;52.420;20.896;2022-07-06T10:39:38;26.00;1.00
21189;DHT22;39071;52.420;20.896;2022-07-06T10:42:41;25.80;1.00
21189;DHT22;39071;52.420;20.896;2022-07-06T10:45:08;25.90;1.00
21189;DHT22;39071;52.420;20.896;2022-07-06T10:47:35;26.40;1.00
21189;DHT22;39071;52.420;20.896;2022-07-06T10:50:02;26.40;1.00
21189;DHT22;39071;52.420;20.896;2022-07-06T10:52:59;26.50;1.00
21189;DHT22;39071;52.420;20.896;2022-07-06T10:55:37;26.60;1.00
21189;DHT22;39071;52.420;20.896;2022-07-06T10:58:04;26.80;1.00
21189;DHT22;39071;52.420;20.896;2022-07-06T11:00:48;27.20;1.00
21189;DHT22;39071;52.420;20.896;2022-07-06T11:06:23;27.80;1.00
21189;DHT22;39071;52.420;20.896;2022-07-06T11:08:57;27.40;1.00
21189;DHT22;39071;52.420;20.896;2022-07-06T11:11:49;27.00;1.00
21189;DHT22;39071;52.420;20.896;2022-07-06T11:14:16;27.10;1.00
21189;DHT22;39071;52.420;20.896;2022-07-06T11:19:24;26.60;1.00
21189;DHT22;39071;52.420;20.896;2022-07-06T11:21:52;26.30;1.00
21189;DHT22;39071;52.420;20.896;2022-07-06T11:26:49;25.30;1.00
21189;DHT22;39071;52.420;20.896;2022-07-06T11:29:17;25.20;1.00
21189;DHT22;39071;52.420;20.896;2022-07-06T11:31:45;25.20;1.00
21189;DHT22;39071;52.420;20.896;2022-07-06T11:34:13;25.00;1.00
21189;DHT22;39071;52.420;20.896;2022-07-06T11:36:41;25.10;1.00
21189;DHT22;39071;52.420;20.896;2022-07-06T11:39:07;25.50;1.00
21189;DHT22;39071;52.420;20.896;2022-07-06T11:41:33;25.80;1.00
21189;DHT22;39071;52.420;20.896;2022-07-06T11:44:00;26.00;1.00
21189;DHT22;39071;52.420;20.896;2022-07-06T11:46:29;26.10;1.00
21189;DHT22;39071;52.420;20.896;2022-07-06T11:49:02;26.10;1.00
21189;DHT22;39071;52.420;20.896;2022-07-06T11:51:30;26.00;1.00
21189;DHT22;39071;52.420;20.896;2022-07-06T11:53:58;26.40;1.00
21189;DHT22;39071;52.420;20.896;2022-07-06T11:56:25;26.50;1.00
21189;DHT22;39071;52.420;20.896;2022-07-06T11:58:57;26.60;1.00
21189;DHT22;39071;52.420;20.896;2022-07-06T12:01:25;26.60;1.00
21189;DHT22;39071;52.420;20.896;2022-07-06T12:03:52;26.70;1.00
21189;DHT22;39071;52.420;20.896;2022-07-06T12:06:24;27.00;1.00
21189;DHT22;39071;52.420;20.896;2022-07-06T12:08:54;27.20;1.00
21189;DHT22;39071;52.420;20.896;2022-07-06T12:11:26;27.10;1.00
21189;DHT22;39071;52.420;20.896;2022-07-06T12:13:54;26.70;1.00
21189;DHT22;39071;52.420;20.896;2022-07-06T12:16:21;26.20;1.00
21189;DHT22;39071;52.420;20.896;2022-07-06T12:18:50;25.80;1.00
21189;DHT22;39071;52.420;20.896;2022-07-06T12:21:18;25.40;1.00
21189;DHT22;39071;52.420;20.896;2022-07-06T12:23:48;25.20;1.00
21189;DHT22;39071;52.420;20.896;2022-07-06T12:26:15;24.80;1.00
21189;DHT22;39071;52.420;20.896;2022-07-06T12:28:42;25.00;1.00
21189;DHT22;39071;52.420;20.896;2022-07-06T12:31:09;25.10;1.00
21189;DHT22;39071;52.420;20.896;2022-07-06T12:33:35;25.20;1.00
21189;DHT22;39071;52.420;20.896;2022-07-06T12:36:14;25.50;1.00
21189;DHT22;39071;52.420;20.896;2022-07-06T12:38:49;26.00;1.00
21189;DHT22;39071;52.420;20.896;2022-07-06T12:41:33;26.10;1.00
21189;DHT22;39071;52.420;20.896;2022-07-06T12:44:07;26.10;1.00
21189;DHT22;39071;52.420;20.896;2022-07-06T12:46:34;25.80;1.00
21189;DHT22;39071;52.420;20.896;2022-07-06T12:49:02;25.50;1.00
21189;DHT22;39071;52.420;20.896;2022-07-06T12:51:28;25.30;1.00
21189;DHT22;39071;52.420;20.896;2022-07-06T12:54:12;25.10;1.00
21189;DHT22;39071;52.420;20.896;2022-07-06T12:56:59;25.00;1.00
21189;DHT22;39071;52.420;20.896;2022-07-06T12:59:25;25.10;1.00
21189;DHT22;39071;52.420;20.896;2022-07-06T13:01:52;25.10;1.00
21189;DHT22;39071;52.420;20.896;2022-07-06T13:04:21;25.40;1.00
21189;DHT22;39071;52.420;20.896;2022-07-06T13:06:47;25.70;1.00
21189;DHT22;39071;52.420;20.896;2022-07-06T13:09:12;25.90;1.00
21189;DHT22;39071;52.420;20.896;2022-07-06T13:11:40;26.00;1.00
21189;DHT22;39071;52.420;20.896;2022-07-06T13:14:06;25.80;1.00
21189;DHT22;39071;52.420;20.896;2022-07-06T13:16:31;25.60;1.00
21189;DHT22;39071;52.420;20.896;2022-07-06T13:19:00;25.50;1.00
21189;DHT22;39071;52.420;20.896;2022-07-06T13:21:26;25.60;1.00
21189;DHT22;39071;52.420;20.896;2022-07-06T13:23:51;25.70;1.00
21189;DHT22;39071;52.420;20.896;2022-07-06T13:26:17;25.60;1.00
21189;DHT22;39071;52.420;20.896;2022-07-06T13:28:43;25.40;1.00
21189;DHT22;39071;52.420;20.896;2022-07-06T13:31:09;25.50;1.00
21189;DHT22;39071;52.420;20.896;2022-07-06T13:33:34;25.40;1.00
21189;DHT22;39071;52.420;20.896;2022-07-06T13:36:01;25.60;1.00
21189;DHT22;39071;52.420;20.896;2022-07-06T13:38:26;25.70;1.00
21189;DHT22;39071;52.420;20.896;2022-07-06T13:40:52;25.80;1.00
21189;DHT22;39071;52.420;20.896;2022-07-06T13:43:18;26.00;1.00
21189;DHT22;39071;52.420;20.896;2022-07-06T13:45:45;26.20;1.00
21189;DHT22;39071;52.420;20.896;2022-07-06T13:48:10;26.20;1.00
21189;DHT22;39071;52.420;20.896;2022-07-06T13:50:36;26.20;1.00
21189;DHT22;39071;52.420;20.896;2022-07-06T13:53:02;26.10;1.00
21189;DHT22;39071;52.420;20.896;2022-07-06T13:55:27;25.90;1.00
21189;DHT22;39071;52.420;20.896;2022-07-06T13:57:53;25.80;1.00
21189;DHT22;39071;52.420;20.896;2022-07-06T14:00:19;25.70;1.00
21189;DHT22;39071;52.420;20.896;2022-07-06T14:02:45;25.60;1.00
21189;DHT22;39071;52.420;20.896;2022-07-06T14:05:10;25.60;1.00
21189;DHT22;39071;52.420;20.896;2022-07-06T14:07:36;25.50;1.00
21189;DHT22;39071;52.420;20.896;2022-07-06T14:10:03;25.40;1.00
21189;DHT22;39071;52.420;20.896;2022-07-06T14:12:28;25.30;1.00
21189;DHT22;39071;52.420;20.896;2022-07-06T14:14:54;25.10;1.00
21189;DHT22;39071;52.420;20.896;2022-07-06T14:17:20;25.10;1.00
21189;DHT22;39071;52.420;20.896;2022-07-06T14:19:45;24.90;1.00
21189;DHT22;39071;52.420;20.896;2022-07-06T14:22:11;24.90;1.00
21189;DHT22;39071;52.420;20.896;2022-07-06T14:24:37;24.80;1.00
21189;DHT22;39071;52.420;20.896;2022-07-06T14:27:02;24.70;1.00
21189;DHT22;39071;52.420;20.896;2022-07-06T14:29:28;24.40;1.00
21189;DHT22;39071;52.420;20.896;2022-07-06T14:31:54;24.40;1.00
21189;DHT22;39071;52.420;20.896;2022-07-06T14:34:19;24.30;1.00
21189;DHT22;39071;52.420;20.896;2022-07-06T14:36:45;24.30;1.00
21189;DHT22;39071;52.420;20.896;2022-07-06T14:39:11;24.30;1.00
21189;DHT22;39071;52.420;20.896;2022-07-06T14:41:41;24.30;1.00
21189;DHT22;39071;52.420;20.896;2022-07-06T14:44:06;24.10;1.00
21189;DHT22;39071;52.420;20.896;2022-07-06T14:46:32;24.10;1.00
21189;DHT22;39071;52.420;20.896;2022-07-06T14:49:00;24.00;1.00
21189;DHT22;39071;52.420;20.896;2022-07-06T14:51:26;24.00;1.00
21189;DHT22;39071;52.420;20.896;2022-07-06T14:53:52;23.90;1.00
21189;DHT22;39071;52.420;20.896;2022-07-06T14:56:17;23.80;1.00
21189;DHT22;39071;52.420;20.896;2022-07-06T14:58:43;23.80;1.00
21189;DHT22;39071;52.420;20.896;2022-07-06T15:01:09;23.70;1.00
21189;DHT22;39071;52.420;20.896;2022-07-06T15:03:35;23.70;1.00
21189;DHT22;39071;52.420;20.896;2022-07-06T15:06:01;23.70;1.00
21189;DHT22;39071;52.420;20.896;2022-07-06T15:08:26;23.70;1.00
21189;DHT22;39071;52.420;20.896;2022-07-06T15:10:52;23.60;1.00
21189;DHT22;39071;52.420;20.896;2022-07-06T15:13:18;23.50;1.00
21189;DHT22;39071;52.420;20.896;2022-07-06T15:15:44;23.30;1.00
21189;DHT22;39071;52.420;20.896;2022-07-06T15:18:10;23.30;1.00
21189;DHT22;39071;52.420;20.896;2022-07-06T15:20:36;23.10;1.00
21189;DHT22;39071;52.420;20.896;2022-07-06T15:23:01;23.10;1.00
21189;DHT22;39071;52.420;20.896;2022-07-06T15:25:27;22.90;1.00
21189;DHT22;39071;52.420;20.896;2022-07-06T15:27:53;22.70;1.00
21189;DHT22;39071;52.420;20.896;2022-07-06T15:30:19;22.60;1.00
21189;DHT22;39071;52.420;20.896;2022-07-06T15:32:45;22.50;1.00
21189;DHT22;39071;52.420;20.896;2022-07-06T15:35:10;22.30;1.00